createdAt,value
2018-02-25T00:00:13.841Z,58.44
2018-02-25T00:01:13.854Z,59.29
2018-02-25T00:02:13.860Z,59.00
2018-02-25T00:03:13.913Z,58.91
2018-02-25T00:04:13.884Z,58.34
2018-02-25T00:05:13.895Z,58.53
2018-02-25T00:06:13.901Z,57.97
2018-02-25T00:07:13.918Z,57.87
2018-02-25T00:08:13.931Z,57.97
2018-02-25T00:09:13.992Z,58.53
2018-02-25T00:10:13.952Z,58.53
2018-02-25T00:11:13.961Z,58.91
2018-02-25T00:12:13.977Z,58.82
2018-02-25T00:13:13.995Z,59.19
2018-02-25T00:14:14.961Z,59.00
2018-02-25T00:15:14.023Z,58.53
2018-02-25T00:16:14.962Z,58.25
2018-02-25T00:17:14.038Z,58.44
2018-02-25T00:18:14.039Z,58.44
2018-02-25T00:19:14.491Z,58.63
2018-02-25T00:20:14.964Z,58.34
2018-02-25T00:21:16.966Z,58.34
2018-02-25T00:22:14.960Z,58.15
2018-02-25T00:23:24.958Z,58.53
2018-02-25T00:24:15.221Z,58.63
2018-02-25T00:25:15.458Z,58.44
2018-02-25T00:26:14.176Z,58.53
2018-02-25T00:27:14.147Z,58.72
2018-02-25T00:28:14.183Z,58.91
2018-02-25T00:29:14.174Z,58.82
2018-02-25T00:30:14.183Z,59.29
2018-02-25T00:31:14.235Z,59.19
2018-02-25T00:32:14.202Z,59.29
2018-02-25T00:33:14.219Z,59.86
2018-02-25T00:34:14.240Z,60.24
2018-02-25T00:35:14.236Z,59.48
2018-02-25T00:36:14.256Z,59.00
2018-02-25T00:37:14.286Z,59.38
2018-02-25T00:38:14.301Z,58.34
2018-02-25T00:39:14.284Z,58.44
2018-02-25T00:40:14.292Z,58.53
2018-02-25T00:41:14.356Z,58.25
2018-02-25T00:42:14.322Z,58.82
2018-02-25T00:43:14.335Z,58.63
2018-02-25T00:44:14.344Z,59.00
2018-02-25T00:45:14.350Z,58.82
2018-02-25T00:46:14.364Z,59.00
2018-02-25T00:47:14.419Z,59.29
2018-02-25T00:48:14.394Z,58.82
2018-02-25T00:49:14.392Z,59.00
2018-02-25T00:50:14.405Z,59.10
2018-02-25T00:51:14.420Z,59.00
2018-02-25T00:52:14.452Z,59.10
2018-02-25T00:53:14.452Z,59.00
2018-02-25T00:54:14.469Z,59.00
2018-02-25T00:55:14.466Z,59.57
2018-02-25T00:56:14.496Z,59.29
2018-02-25T00:57:14.512Z,59.10
2018-02-25T00:58:14.518Z,59.57
2018-02-25T00:59:14.515Z,60.33
2018-02-25T01:00:14.518Z,59.95
2018-02-25T01:01:14.536Z,59.67
2018-02-25T01:02:14.546Z,60.05
2018-02-25T01:03:14.585Z,60.24
2018-02-25T01:04:14.562Z,59.95
2018-02-25T01:05:14.580Z,59.48
2018-02-25T01:06:14.588Z,59.00
2018-02-25T01:07:14.615Z,59.00
2018-02-25T01:08:14.630Z,59.10
2018-02-25T01:09:14.624Z,59.00
2018-02-25T01:10:14.634Z,58.44
2018-02-25T01:11:14.678Z,59.10
2018-02-25T01:12:14.655Z,59.10
2018-02-25T01:13:14.671Z,58.72
2018-02-25T01:14:14.677Z,58.91
2018-02-25T01:15:14.696Z,58.82
2018-02-25T01:16:14.713Z,59.19
2018-02-25T01:17:14.732Z,58.98
2018-02-25T01:18:14.723Z,59.67
2018-02-25T01:19:14.734Z,59.95
2018-02-25T01:20:14.750Z,59.10
2018-02-25T01:21:14.803Z,58.63
2018-02-25T01:22:14.769Z,58.91
2018-02-25T01:23:14.779Z,58.82
2018-02-25T01:24:14.789Z,58.98
2018-02-25T01:25:14.803Z,58.88
2018-02-25T01:26:14.820Z,59.48
2018-02-25T01:27:14.844Z,59.10
2018-02-25T01:28:14.842Z,60.02
2018-02-25T01:29:14.864Z,59.76
2018-02-25T01:30:14.884Z,59.48
2018-02-25T01:31:14.868Z,59.29
2018-02-25T01:32:14.881Z,59.48
2018-02-25T01:33:14.912Z,58.63
2018-02-25T01:34:14.904Z,58.88
2018-02-25T01:35:14.919Z,59.10
2018-02-25T01:36:14.927Z,58.88
2018-02-25T01:37:14.938Z,59.19
2018-02-25T01:38:14.990Z,59.83
2018-02-25T01:39:14.964Z,60.11
2018-02-25T01:40:14.972Z,60.21
2018-02-25T01:41:14.995Z,60.11
2018-02-25T01:42:14.996Z,59.83
2018-02-25T01:43:17.422Z,59.92
2018-02-25T01:44:15.067Z,59.76
2018-02-25T01:45:15.037Z,59.92
2018-02-25T01:46:15.038Z,60.11
2018-02-25T01:47:15.049Z,60.11
2018-02-25T01:48:15.066Z,59.95
2018-02-25T01:49:15.104Z,59.54
2018-02-25T01:50:15.121Z,59.73
2018-02-25T01:51:15.117Z,60.02
2018-02-25T01:52:15.105Z,60.05
2018-02-25T01:53:15.152Z,59.10
2018-02-25T01:54:15.127Z,59.10
2018-02-25T01:55:15.142Z,58.60
2018-02-25T01:56:15.150Z,59.35
2018-02-25T01:57:15.197Z,59.19
2018-02-25T01:58:15.177Z,58.88
2018-02-25T01:59:15.202Z,59.67
2018-02-25T02:00:15.196Z,60.02
2018-02-25T02:01:15.240Z,61.05
2018-02-25T02:02:15.218Z,60.21
2018-02-25T02:03:15.238Z,60.05
2018-02-25T02:04:15.244Z,60.02
2018-02-25T02:05:15.253Z,59.64
2018-02-25T02:06:15.269Z,59.54
2018-02-25T02:07:15.298Z,59.92
2018-02-25T02:08:15.312Z,59.64
2018-02-25T02:09:21.016Z,60.02
2018-02-25T02:12:07.018Z,59.26
2018-02-25T02:13:13.522Z,59.45
2018-02-25T02:14:08.117Z,60.02
2018-02-25T02:15:07.010Z,59.73
2018-02-25T02:16:07.963Z,60.21
2018-02-25T02:17:07.982Z,60.02
2018-02-25T02:18:07.040Z,60.21
2018-02-25T02:20:50.296Z,60.68
2018-02-25T02:21:50.308Z,61.15
2018-02-25T02:22:50.088Z,61.05
2018-02-25T02:23:50.100Z,61.24
2018-02-25T02:24:50.106Z,59.92
2018-02-25T02:26:11.430Z,60.21
2018-02-25T02:26:50.137Z,60.86
2018-02-25T02:28:08.698Z,60.86
2018-02-25T02:28:56.882Z,61.05
2018-02-25T02:29:50.167Z,61.71
2018-02-25T02:30:50.176Z,61.24
2018-02-25T02:31:50.410Z,61.15
2018-02-25T02:32:50.214Z,60.86
2018-02-25T02:33:50.205Z,59.64
2018-02-25T02:34:50.228Z,59.64
2018-02-25T02:35:50.222Z,58.98
2018-02-25T02:36:50.351Z,60.02
2018-02-25T02:37:50.275Z,60.21
2018-02-25T02:38:50.255Z,61.15
2018-02-25T02:39:50.278Z,61.43
2018-02-25T02:40:50.278Z,61.80
2018-02-25T02:41:50.289Z,61.61
2018-02-25T02:42:50.349Z,61.61
2018-02-25T02:43:50.344Z,61.99
2018-02-25T02:44:50.322Z,61.71
2018-02-25T02:45:50.331Z,61.90
2018-02-25T02:46:50.365Z,61.90
2018-02-25T02:47:50.360Z,61.90
2018-02-25T02:48:51.373Z,62.28
2018-02-25T02:49:50.387Z,62.75
2018-02-25T02:50:50.457Z,62.81
2018-02-25T02:51:50.398Z,62.81
2018-02-25T02:52:50.409Z,62.37
2018-02-25T02:53:50.423Z,62.75
2018-02-25T02:54:50.476Z,61.99
2018-02-25T02:55:50.444Z,61.99
2018-02-25T02:56:50.455Z,61.80
2018-02-25T02:57:50.594Z,61.80
2018-02-25T02:58:50.476Z,61.80
2018-02-25T02:59:50.602Z,61.80
2018-02-25T03:00:50.522Z,60.96
2018-02-25T03:01:50.513Z,61.80
2018-02-25T03:02:50.562Z,60.77
2018-02-25T03:03:50.538Z,61.15
2018-02-25T03:04:50.542Z,61.68
2018-02-25T03:05:50.559Z,61.71
2018-02-25T03:08:48.408Z,61.77
2018-02-25T03:09:49.293Z,61.80
2018-02-25T03:10:46.773Z,61.96
2018-02-25T03:11:47.268Z,62.09
2018-02-25T03:16:13.763Z,61.61
2018-02-25T03:17:13.780Z,61.40
2018-02-25T03:20:13.547Z,62.72
2018-02-25T03:21:09.546Z,62.84
2018-02-25T03:24:06.727Z,62.53
2018-02-25T03:25:06.665Z,61.99
2018-02-25T03:26:06.715Z,61.80
2018-02-25T03:27:06.672Z,61.33
2018-02-25T03:28:06.689Z,60.11
2018-02-25T03:29:06.700Z,61.11
2018-02-25T03:30:06.710Z,60.96
2018-02-25T03:31:06.732Z,61.52
2018-02-25T03:32:06.754Z,61.68
2018-02-25T03:33:06.770Z,62.09
2018-02-25T03:34:06.752Z,61.96
2018-02-25T03:35:06.771Z,62.25
2018-02-25T03:36:06.777Z,61.99
2018-02-25T03:37:06.788Z,61.49
2018-02-25T03:38:06.797Z,62.15
2018-02-25T03:39:06.834Z,61.87
2018-02-25T03:40:06.822Z,61.96
2018-02-25T03:41:06.826Z,61.87
2018-02-25T03:42:06.881Z,61.58
2018-02-25T03:43:06.851Z,61.58
2018-02-25T03:44:06.862Z,61.96
2018-02-25T03:45:06.873Z,61.77
2018-02-25T03:46:06.886Z,61.68
2018-02-25T03:47:06.917Z,61.77
2018-02-25T03:48:06.905Z,60.74
2018-02-25T03:49:06.934Z,61.77
2018-02-25T03:50:06.926Z,61.87
2018-02-25T03:51:06.967Z,62.81
2018-02-25T03:52:06.982Z,62.15
2018-02-25T03:53:06.961Z,61.96
2018-02-25T03:54:06.965Z,62.43
2018-02-25T03:55:06.979Z,62.53
2018-02-25T03:56:07.011Z,62.34
2018-02-25T03:57:07.024Z,63.00
2018-02-25T03:58:07.013Z,63.00
2018-02-25T03:59:07.025Z,63.10
2018-02-25T04:00:07.034Z,62.62
2018-02-25T04:01:07.074Z,63.19
2018-02-25T04:02:07.054Z,63.57
2018-02-25T04:03:07.061Z,64.04
2018-02-25T04:04:07.076Z,63.29
2018-02-25T04:05:07.089Z,63.19
2018-02-25T04:06:07.101Z,63.38
2018-02-25T04:07:07.125Z,63.19
2018-02-25T04:08:07.137Z,63.19
2018-02-25T04:09:07.125Z,62.72
2018-02-25T04:10:07.176Z,62.53
2018-02-25T04:11:07.153Z,63.00
2018-02-25T04:12:16.018Z,63.57
2018-02-25T04:17:09.754Z,63.66
2018-02-25T04:18:07.755Z,63.66
2018-02-25T04:19:09.728Z,63.82
2018-02-25T04:20:12.156Z,63.95
2018-02-25T04:21:17.219Z,64.61
2018-02-25T04:22:06.902Z,64.04
2018-02-25T04:24:50.207Z,65.05
2018-02-25T04:25:58.254Z,65.80
2018-02-25T04:27:00.861Z,65.61
2018-02-25T04:27:51.607Z,65.99
2018-02-25T04:31:49.364Z,64.58
2018-02-25T04:35:09.059Z,65.23
2018-02-25T04:38:54.209Z,65.61
2018-02-25T04:40:01.689Z,65.42
2018-02-25T04:40:47.143Z,65.42
2018-02-25T04:44:12.553Z,64.67
2018-02-25T04:45:07.042Z,64.20
2018-02-25T04:46:07.075Z,65.14
2018-02-25T04:47:07.044Z,65.42
2018-02-25T04:55:34.052Z,66.74
2018-02-25T04:56:18.008Z,67.30
2018-02-25T04:57:17.937Z,66.74
2018-02-25T04:58:17.942Z,66.36
2018-02-25T04:59:18.481Z,66.08
2018-02-25T05:00:18.930Z,66.27
2018-02-25T05:01:19.106Z,65.70
2018-02-25T05:02:51.790Z,65.99
2018-02-25T05:05:17.288Z,65.92
2018-02-25T05:06:17.068Z,64.67
2018-02-25T05:07:17.077Z,65.14
2018-02-25T05:08:17.090Z,65.33
2018-02-25T05:09:17.130Z,65.99
2018-02-25T05:10:35.778Z,65.89
2018-02-25T05:13:12.297Z,66.08
2018-02-25T05:15:49.606Z,65.70
2018-02-25T05:16:48.809Z,65.70
2018-02-25T05:17:48.812Z,65.52
2018-02-25T05:18:48.874Z,65.99
2018-02-25T05:19:48.824Z,66.17
2018-02-25T05:20:48.862Z,66.74
2018-02-25T05:21:51.831Z,67.21
2018-02-25T05:22:49.637Z,66.46
2018-02-25T05:23:51.583Z,66.17
2018-02-25T05:27:44.262Z,67.40
2018-02-25T05:30:49.961Z,67.78
2018-02-25T05:31:49.933Z,66.93
2018-02-25T05:32:49.936Z,67.78
2018-02-25T05:33:49.951Z,67.78
2018-02-25T05:34:49.960Z,67.59
2018-02-25T05:35:49.972Z,67.40
2018-02-25T05:36:50.019Z,67.97
2018-02-25T05:37:49.990Z,67.78
2018-02-25T05:38:49.995Z,67.97
2018-02-25T05:39:50.007Z,68.15
2018-02-25T05:40:50.019Z,68.34
2018-02-25T05:41:50.034Z,67.97
2018-02-25T05:42:50.056Z,67.87
2018-02-25T05:43:50.084Z,68.06
2018-02-25T05:44:50.058Z,68.15
2018-02-25T05:45:50.072Z,67.59
2018-02-25T05:46:50.084Z,67.87
2018-02-25T05:47:50.100Z,67.30
2018-02-25T05:48:50.145Z,67.78
2018-02-25T05:49:50.119Z,67.40
2018-02-25T05:50:50.124Z,67.78
2018-02-25T05:51:50.133Z,67.68
2018-02-25T05:52:50.145Z,67.40
2018-02-25T05:53:50.197Z,67.97
2018-02-25T05:54:50.160Z,68.44
2018-02-25T05:55:50.173Z,69.00
2018-02-25T05:56:50.197Z,68.53
2018-02-25T05:57:50.209Z,68.44
2018-02-25T05:58:51.213Z,69.10
2018-02-25T05:59:50.256Z,68.72
2018-02-25T06:00:50.293Z,68.72
2018-02-25T06:01:50.249Z,68.53
2018-02-25T06:02:50.261Z,68.82
2018-02-25T06:03:50.256Z,68.72
2018-02-25T06:04:50.274Z,68.44
2018-02-25T06:05:50.296Z,68.44
2018-02-25T06:06:51.169Z,69.29
2018-02-25T06:07:50.686Z,69.48
2018-02-25T06:08:50.313Z,68.91
2018-02-25T06:09:50.372Z,68.72
2018-02-25T06:10:50.333Z,69.38
2018-02-25T06:11:50.340Z,69.00
2018-02-25T06:12:50.346Z,68.53
2018-02-25T06:13:50.414Z,68.91
2018-02-25T06:14:50.376Z,68.63
2018-02-25T06:15:50.416Z,68.63
2018-02-25T06:17:10.437Z,68.25
2018-02-25T06:17:50.402Z,68.82
2018-02-25T06:18:50.413Z,68.44
2018-02-25T06:19:50.440Z,68.25
2018-02-25T06:20:50.425Z,68.44
2018-02-25T06:21:50.450Z,68.25
2018-02-25T06:22:50.451Z,68.15
2018-02-25T06:23:50.462Z,67.87
2018-02-25T06:24:50.486Z,68.15
2018-02-25T06:25:50.476Z,68.25
2018-02-25T06:26:50.526Z,68.91
2018-02-25T06:27:50.508Z,68.91
2018-02-25T06:28:50.503Z,67.87
2018-02-25T06:29:50.518Z,68.25
2018-02-25T06:30:50.540Z,68.44
2018-02-25T06:31:50.572Z,68.72
2018-02-25T06:32:50.563Z,69.19
2018-02-25T06:33:50.557Z,68.44
2018-02-25T06:34:50.562Z,68.53
2018-02-25T06:35:50.575Z,67.78
2018-02-25T06:36:50.594Z,68.15
2018-02-25T06:37:50.628Z,68.34
2018-02-25T06:38:50.607Z,67.97
2018-02-25T06:39:50.624Z,67.49
2018-02-25T06:40:50.626Z,67.68
2018-02-25T06:41:50.645Z,67.02
2018-02-25T06:42:50.676Z,67.02
2018-02-25T06:43:50.659Z,67.12
2018-02-25T06:44:50.665Z,66.74
2018-02-25T06:45:50.708Z,67.30
2018-02-25T06:46:50.702Z,66.93
2018-02-25T06:47:50.733Z,67.12
2018-02-25T06:48:50.752Z,67.02
2018-02-25T06:49:50.734Z,67.78
2018-02-25T06:50:50.732Z,67.02
2018-02-25T06:51:50.766Z,66.74
2018-02-25T06:52:50.758Z,67.12
2018-02-25T06:53:50.776Z,66.74
2018-02-25T06:54:50.786Z,66.83
2018-02-25T06:55:50.816Z,67.21
2018-02-25T06:56:50.804Z,67.78
2018-02-25T06:57:50.803Z,66.83
2018-02-25T06:58:50.810Z,66.36
2018-02-25T06:59:50.831Z,65.61
2018-02-25T07:00:50.860Z,65.42
2018-02-25T07:01:50.870Z,65.33
2018-02-25T07:02:50.857Z,65.05
2018-02-25T07:03:50.870Z,64.95
2018-02-25T07:04:50.876Z,65.89
2018-02-25T07:05:50.882Z,65.52
2018-02-25T07:06:50.915Z,65.61
2018-02-25T07:07:50.908Z,65.14
2018-02-25T07:08:50.925Z,65.23
2018-02-25T07:09:50.996Z,65.26
2018-02-25T07:10:50.978Z,64.58
2018-02-25T07:11:50.972Z,64.76
2018-02-25T07:12:50.989Z,63.95
2018-02-25T07:13:50.999Z,63.44
2018-02-25T07:14:50.997Z,63.76
2018-02-25T07:15:51.037Z,63.76
2018-02-25T07:16:51.024Z,63.10
2018-02-25T07:17:51.018Z,63.47
2018-02-25T07:18:51.014Z,63.35
2018-02-25T07:19:51.061Z,63.57
2018-02-25T07:20:51.062Z,63.66
2018-02-25T07:21:51.050Z,63.29
2018-02-25T07:22:51.061Z,63.95
2018-02-25T07:23:51.065Z,62.34
2018-02-25T07:24:51.080Z,62.62
2018-02-25T07:30:39.377Z,62.25
2018-02-25T07:31:39.377Z,61.96
2018-02-25T07:32:40.551Z,61.77
2018-02-25T07:33:39.481Z,62.72
2018-02-25T07:35:01.862Z,62.91
2018-02-25T07:35:42.188Z,62.06
2018-02-25T07:36:55.483Z,62.97
2018-02-25T07:42:42.019Z,62.78
2018-02-25T07:47:34.783Z,63.63
2018-02-25T07:48:34.765Z,63.16
2018-02-25T07:51:23.816Z,62.72
2018-02-25T07:52:37.758Z,61.87
2018-02-25T07:53:23.991Z,61.77
2018-02-25T08:19:14.079Z,62.62
2018-02-25T08:19:52.434Z,62.62
2018-02-25T08:23:08.776Z,62.62
2018-02-25T08:25:08.718Z,61.77
2018-02-25T08:26:08.655Z,61.02
2018-02-25T08:27:08.666Z,60.74
2018-02-25T08:28:11.434Z,60.74
2018-02-25T08:29:08.665Z,61.02
2018-02-25T08:30:15.560Z,61.11
2018-02-25T08:31:08.712Z,60.93
2018-02-25T08:32:08.720Z,61.02
2018-02-25T08:33:08.705Z,61.11
2018-02-25T08:34:08.700Z,60.93
2018-02-25T08:35:08.720Z,59.89
2018-02-25T08:36:08.763Z,59.04
2018-02-25T08:37:08.738Z,59.14
2018-02-25T08:38:08.902Z,59.61
2018-02-25T08:39:08.842Z,59.89
2018-02-25T08:40:08.770Z,59.61
2018-02-25T09:07:48.950Z,59.70
2018-02-25T09:08:48.895Z,58.95
2018-02-25T09:09:48.856Z,59.14
2018-02-25T09:10:48.866Z,58.57
2018-02-25T09:11:48.872Z,58.29
2018-02-25T09:12:48.914Z,59.23
2018-02-25T09:13:48.892Z,58.41
2018-02-25T09:14:48.953Z,57.46
2018-02-25T09:15:48.913Z,56.81
2018-02-25T09:16:48.923Z,56.99
2018-02-25T09:17:48.970Z,56.52
2018-02-25T09:18:48.945Z,56.15
2018-02-25T09:19:48.962Z,55.67
2018-02-25T09:20:48.969Z,55.77
2018-02-25T09:21:48.986Z,56.15
2018-02-25T09:22:48.992Z,56.05
2018-02-25T09:23:49.046Z,55.49
2018-02-25T09:24:49.016Z,55.67
2018-02-25T09:25:49.021Z,56.62
2018-02-25T09:26:49.028Z,56.43
2018-02-25T09:27:49.044Z,56.34
2018-02-25T09:28:49.070Z,56.62
2018-02-25T09:29:49.081Z,56.05
2018-02-25T09:30:49.076Z,57.09
2018-02-25T09:31:49.088Z,56.34
2018-02-25T09:32:49.130Z,56.43
2018-02-25T09:33:49.175Z,56.52
2018-02-25T09:34:49.123Z,56.43
2018-02-25T09:35:49.127Z,56.43
2018-02-25T09:36:49.137Z,55.39
2018-02-25T09:37:49.158Z,55.39
2018-02-25T09:38:49.181Z,55.49
2018-02-25T09:39:49.192Z,56.05
2018-02-25T09:40:49.242Z,55.67
2018-02-25T09:41:49.195Z,55.20
2018-02-25T09:42:49.206Z,54.92
2018-02-25T09:43:49.236Z,55.11
2018-02-25T09:44:49.268Z,54.92
2018-02-25T09:45:49.335Z,54.35
2018-02-25T09:46:49.900Z,54.26
2018-02-25T09:47:49.264Z,55.67
2018-02-25T09:48:49.271Z,55.30
2018-02-25T09:49:49.299Z,55.01
2018-02-25T09:50:51.331Z,55.58
2018-02-25T09:51:49.327Z,54.07
2018-02-25T09:52:49.331Z,54.10
2018-02-25T09:53:49.331Z,53.59
2018-02-25T09:54:49.346Z,53.03
2018-02-25T09:55:49.373Z,53.59
2018-02-25T09:56:49.359Z,54.10
2018-02-25T09:57:49.381Z,53.44
2018-02-25T09:58:49.387Z,53.50
2018-02-25T09:59:49.413Z,53.69
2018-02-25T10:00:49.442Z,53.41
2018-02-25T10:01:49.450Z,53.69
2018-02-25T10:02:49.530Z,53.15
2018-02-25T10:03:49.447Z,52.96
2018-02-25T10:04:49.496Z,53.44
2018-02-25T10:05:49.495Z,52.37
2018-02-25T10:06:49.489Z,52.87
2018-02-25T10:07:49.531Z,52.49
2018-02-25T10:08:49.527Z,52.49
2018-02-25T10:09:49.554Z,53.06
2018-02-25T10:10:49.614Z,53.06
2018-02-25T10:11:49.541Z,53.06
2018-02-25T10:12:49.604Z,52.94
2018-02-25T10:13:49.587Z,53.15
2018-02-25T10:14:49.602Z,53.25
2018-02-25T10:15:49.584Z,52.78
2018-02-25T10:16:49.594Z,52.59
2018-02-25T10:17:49.627Z,52.21
2018-02-25T10:18:49.655Z,52.40
2018-02-25T10:19:49.633Z,51.73
2018-02-25T10:20:49.708Z,51.83
2018-02-25T10:21:49.658Z,51.26
2018-02-25T10:22:49.680Z,51.36
2018-02-25T10:23:49.674Z,51.73
2018-02-25T10:24:49.715Z,51.45
2018-02-25T10:25:49.736Z,52.21
2018-02-25T10:26:49.704Z,51.64
2018-02-25T10:27:49.714Z,51.26
2018-02-25T10:28:49.893Z,51.45
2018-02-25T10:29:49.777Z,51.45
2018-02-25T10:30:49.792Z,51.17
2018-02-25T10:31:50.413Z,51.54
2018-02-25T10:32:51.913Z,51.64
2018-02-25T10:33:49.811Z,51.64
2018-02-25T10:34:49.823Z,52.21
2018-02-25T10:35:49.827Z,51.92
2018-02-25T10:36:51.415Z,51.17
2018-02-25T10:37:49.836Z,50.89
2018-02-25T10:38:50.503Z,50.79
2018-02-25T10:39:49.860Z,50.89
2018-02-25T10:40:49.895Z,50.98
2018-02-25T10:41:49.861Z,50.70
2018-02-25T10:42:49.880Z,50.98
2018-02-25T10:43:50.506Z,50.98
2018-02-25T10:44:49.895Z,50.89
2018-02-25T10:45:49.940Z,50.98
2018-02-25T10:46:49.922Z,50.60
2018-02-25T10:47:49.940Z,50.32
2018-02-25T10:48:49.937Z,49.94
2018-02-25T10:49:49.959Z,50.04
2018-02-25T10:50:50.023Z,50.32
2018-02-25T10:51:49.977Z,50.70
2018-02-25T10:52:49.982Z,50.32
2018-02-25T10:53:50.005Z,50.51
2018-02-25T10:54:50.018Z,50.42
2018-02-25T10:55:50.020Z,49.85
2018-02-25T10:56:50.064Z,49.76
2018-02-25T10:57:50.163Z,50.32
2018-02-25T10:58:50.061Z,50.04
2018-02-25T10:59:50.056Z,50.89
2018-02-25T11:00:50.066Z,50.79
2018-02-25T11:01:50.091Z,50.13
2018-02-25T11:02:50.121Z,49.85
2018-02-25T11:03:50.102Z,50.13
2018-02-25T11:04:50.149Z,50.23
2018-02-25T11:05:50.137Z,50.60
2018-02-25T11:06:50.141Z,50.32
2018-02-25T11:07:50.156Z,50.04
2018-02-25T11:08:50.186Z,50.32
2018-02-25T11:09:51.059Z,49.47
2018-02-25T11:10:51.090Z,49.47
2018-02-25T11:11:50.238Z,49.94
2018-02-25T11:12:50.212Z,49.57
2018-02-25T11:13:50.386Z,49.38
2018-02-25T11:14:51.915Z,50.23
2018-02-25T11:15:50.751Z,50.32
2018-02-25T11:16:52.045Z,49.66
2018-02-25T11:17:51.011Z,49.66
2018-02-25T11:18:51.025Z,49.66
2018-02-25T11:19:51.007Z,49.76
2018-02-25T11:20:50.355Z,49.85
2018-02-25T11:21:50.330Z,49.66
2018-02-25T11:22:50.321Z,49.57
2018-02-25T11:23:50.349Z,49.38
2018-02-25T11:24:50.375Z,49.19
2018-02-25T11:25:50.404Z,49.66
2018-02-25T11:26:50.400Z,49.76
2018-02-25T11:27:50.403Z,49.47
2018-02-25T11:28:50.421Z,49.38
2018-02-25T11:29:50.406Z,49.47
2018-02-25T11:30:50.496Z,49.00
2018-02-25T11:31:50.640Z,48.62
2018-02-25T11:32:52.501Z,49.28
2018-02-25T11:33:50.450Z,49.09
2018-02-25T11:34:50.463Z,49.28
2018-02-25T11:35:50.514Z,49.09
2018-02-25T11:36:50.524Z,49.19
2018-02-25T11:37:50.490Z,49.09
2018-02-25T11:38:50.502Z,48.81
2018-02-25T11:39:50.563Z,49.47
2018-02-25T11:40:50.540Z,49.38
2018-02-25T11:41:50.535Z,48.52
2018-02-25T11:42:50.589Z,48.81
2018-02-25T11:43:50.566Z,48.83
2018-02-25T11:44:50.604Z,48.34
2018-02-25T11:45:50.582Z,48.15
2018-02-25T11:46:50.790Z,48.24
2018-02-25T11:47:50.763Z,48.34
2018-02-25T11:48:50.741Z,47.86
2018-02-25T11:49:52.442Z,48.05
2018-02-25T11:50:51.463Z,47.77
2018-02-25T11:51:50.863Z,47.77
2018-02-25T11:52:50.679Z,47.77
2018-02-25T11:53:51.526Z,47.67
2018-02-25T11:54:50.705Z,47.86
2018-02-25T11:55:50.875Z,47.86
2018-02-25T11:56:50.737Z,47.67
2018-02-25T11:57:50.764Z,48.08
2018-02-25T11:58:50.785Z,47.99
2018-02-25T11:59:50.744Z,47.51
2018-02-25T12:00:51.555Z,47.61
2018-02-25T12:01:50.804Z,47.51
2018-02-25T12:02:51.520Z,47.20
2018-02-25T12:03:50.789Z,47.58
2018-02-25T12:04:50.813Z,47.61
2018-02-25T12:05:50.823Z,47.42
2018-02-25T12:06:50.825Z,47.61
2018-02-25T12:07:50.851Z,47.42
2018-02-25T12:08:50.871Z,47.39
2018-02-25T12:09:50.864Z,47.99
2018-02-25T12:10:50.879Z,47.86
2018-02-25T12:11:50.898Z,47.39
2018-02-25T12:12:50.905Z,47.77
2018-02-25T12:13:50.932Z,48.24
2018-02-25T12:14:50.980Z,47.86
2018-02-25T12:15:50.929Z,48.05
2018-02-25T12:16:50.972Z,47.96
2018-02-25T12:17:50.962Z,47.86
2018-02-25T12:18:50.963Z,47.96
2018-02-25T12:19:50.973Z,47.86
2018-02-25T12:20:51.006Z,47.96
2018-02-25T12:21:51.060Z,47.80
2018-02-25T12:22:51.168Z,47.96
2018-02-25T12:23:51.047Z,48.05
2018-02-25T12:24:52.026Z,48.15
2018-02-25T12:25:54.998Z,47.86
2018-02-25T12:26:51.073Z,47.89
2018-02-25T12:27:51.075Z,47.89
2018-02-25T12:28:51.129Z,47.42
2018-02-25T12:29:52.112Z,47.32
2018-02-25T12:30:51.118Z,47.13
2018-02-25T12:31:51.132Z,47.32
2018-02-25T12:32:51.133Z,47.23
2018-02-25T12:33:51.143Z,47.42
2018-02-25T12:34:51.174Z,46.47
2018-02-25T12:35:51.373Z,46.75
2018-02-25T12:36:51.196Z,46.56
2018-02-25T12:37:51.267Z,46.00
2018-02-25T12:38:51.210Z,46.00
2018-02-25T12:39:51.229Z,46.09
2018-02-25T12:40:51.216Z,46.09
2018-02-25T12:41:51.223Z,46.75
2018-02-25T12:42:51.237Z,46.85
2018-02-25T12:43:51.604Z,47.32
2018-02-25T12:44:51.298Z,47.32
2018-02-25T12:45:51.297Z,46.56
2018-02-25T12:46:51.324Z,47.42
2018-02-25T12:47:51.329Z,46.28
2018-02-25T12:48:51.326Z,46.37
2018-02-25T12:49:51.351Z,46.28
2018-02-25T12:50:51.352Z,46.28
2018-02-25T12:51:51.356Z,46.19
2018-02-25T12:52:51.362Z,46.47
2018-02-25T12:53:52.186Z,46.28
2018-02-25T12:54:51.387Z,46.37
2018-02-25T12:55:51.406Z,46.00
2018-02-25T12:56:51.419Z,46.17
2018-02-25T12:57:51.415Z,46.66
2018-02-25T12:58:51.487Z,46.73
2018-02-25T12:59:51.534Z,47.58
2018-02-25T13:00:51.467Z,47.42
2018-02-25T13:01:51.520Z,47.61
2018-02-25T13:02:51.481Z,47.42
2018-02-25T13:03:51.501Z,46.75
2018-02-25T13:04:51.548Z,46.85
2018-02-25T13:05:53.186Z,46.47
2018-02-25T13:06:51.610Z,46.37
2018-02-25T13:07:51.531Z,46.36
2018-02-25T13:08:51.536Z,46.94
2018-02-25T13:09:51.581Z,47.13
2018-02-25T13:10:51.582Z,47.51
2018-02-25T13:11:51.583Z,47.32
2018-02-25T13:12:51.806Z,47.04
2018-02-25T13:13:51.599Z,46.94
2018-02-25T13:14:51.617Z,46.75
2018-02-25T13:15:54.024Z,46.66
2018-02-25T13:16:51.644Z,46.28
2018-02-25T13:17:51.663Z,46.56
2018-02-25T13:18:51.665Z,46.47
2018-02-25T13:19:51.671Z,45.90
2018-02-25T13:20:51.687Z,46.66
2018-02-25T13:21:51.688Z,46.66
2018-02-25T13:22:51.732Z,46.66
2018-02-25T13:23:51.743Z,46.94
2018-02-25T13:24:51.728Z,46.64
2018-02-25T13:25:51.733Z,46.92
2018-02-25T13:26:51.786Z,47.89
2018-02-25T13:27:51.764Z,47.42
2018-02-25T13:28:51.825Z,47.70
2018-02-25T13:29:51.804Z,46.75
2018-02-25T13:30:51.799Z,46.55
2018-02-25T13:31:51.803Z,47.42
2018-02-25T13:32:52.012Z,47.30
2018-02-25T13:33:51.825Z,47.39
2018-02-25T13:34:51.843Z,47.49
2018-02-25T13:35:51.862Z,47.61
2018-02-25T13:36:51.864Z,47.67
2018-02-25T13:37:51.902Z,47.96
2018-02-25T13:38:51.890Z,47.86
2018-02-25T13:39:51.897Z,47.39
2018-02-25T13:40:51.938Z,47.58
2018-02-25T13:41:51.925Z,47.86
2018-02-25T13:42:51.928Z,48.05
2018-02-25T13:43:51.942Z,47.96
2018-02-25T13:44:51.949Z,47.39
2018-02-25T13:45:51.995Z,47.67
2018-02-25T13:46:51.975Z,47.30
2018-02-25T13:47:52.013Z,47.49
2018-02-25T13:48:52.025Z,47.77
2018-02-25T13:49:52.015Z,47.39
2018-02-25T13:50:52.028Z,47.42
2018-02-25T13:51:52.045Z,46.94
2018-02-25T13:52:52.075Z,46.85
2018-02-25T13:53:52.072Z,47.42
2018-02-25T13:54:52.097Z,46.47
2018-02-25T13:55:52.116Z,46.66
2018-02-25T13:56:52.089Z,47.42
2018-02-25T13:57:52.108Z,47.39
2018-02-25T13:58:52.112Z,47.49
2018-02-25T13:59:52.124Z,47.67
2018-02-25T14:00:52.155Z,47.30
2018-02-25T14:01:52.148Z,47.39
2018-02-25T14:02:52.164Z,47.30
2018-02-25T14:03:52.177Z,47.99
2018-02-25T14:04:52.198Z,47.39
2018-02-25T14:05:52.195Z,47.42
2018-02-25T14:06:52.214Z,47.51
2018-02-25T14:07:52.240Z,47.04
2018-02-25T14:08:52.253Z,47.39
2018-02-25T14:09:52.245Z,47.61
2018-02-25T14:10:52.266Z,47.23
2018-02-25T14:11:52.261Z,47.58
2018-02-25T14:12:52.293Z,47.51
2018-02-25T14:13:52.344Z,47.61
2018-02-25T14:14:52.385Z,47.20
2018-02-25T14:15:52.374Z,47.86
2018-02-25T14:16:52.318Z,47.49
2018-02-25T14:17:52.330Z,47.77
2018-02-25T14:18:52.375Z,47.61
2018-02-25T14:19:52.382Z,47.39
2018-02-25T14:20:52.375Z,47.67
2018-02-25T14:21:52.387Z,47.86
2018-02-25T14:22:52.397Z,48.24
2018-02-25T14:23:52.399Z,47.67
2018-02-25T14:24:52.445Z,47.96
2018-02-25T14:25:52.432Z,47.96
2018-02-25T14:26:52.441Z,47.86
2018-02-25T14:27:52.444Z,47.96
2018-02-25T14:28:52.461Z,47.49
2018-02-25T14:29:52.523Z,47.39
2018-02-25T14:30:52.482Z,47.86
2018-02-25T14:31:52.487Z,48.15
2018-02-25T14:32:52.502Z,47.96
2018-02-25T14:33:52.517Z,47.77
2018-02-25T14:34:52.544Z,47.77
2018-02-25T14:35:52.533Z,47.86
2018-02-25T14:36:52.548Z,47.96
2018-02-25T14:37:52.558Z,47.86
2018-02-25T14:38:52.604Z,47.67
2018-02-25T14:39:52.593Z,47.77
2018-02-25T14:40:52.603Z,47.86
2018-02-25T14:41:52.599Z,48.24
2018-02-25T14:42:52.648Z,47.77
2018-02-25T14:43:52.741Z,48.05
2018-02-25T14:44:52.644Z,48.15
2018-02-25T14:45:52.671Z,48.15
2018-02-25T14:46:52.665Z,48.43
2018-02-25T14:47:52.718Z,48.15
2018-02-25T14:48:52.694Z,48.34